sensor_id;sensor_type;location;lat;lon;timestamp;pressure;altitude;pressure_sealevel;temperature;humidity
6032;BME280;3044;43.232;27.972;2023-03-03T00:00:08;45136.66;;;-143.84;79.86
6032;BME280;3044;43.232;27.972;2023-03-03T00:02:35;45159.50;;;-143.84;79.56
6032;BME280;3044;43.232;27.972;2023-03-03T00:05:02;45148.09;;;-143.84;80.10
6032;BME280;3044;43.232;27.972;2023-03-03T00:07:30;45129.03;;;-143.84;79.59
6032;BME280;3044;43.232;27.972;2023-03-03T00:09:57;45111.91;;;-143.84;79.62
6032;BME280;3044;43.232;27.972;2023-03-03T00:12:27;45142.38;;;-143.84;79.90
6032;BME280;3044;43.232;27.972;2023-03-03T00:14:55;45155.69;;;-143.84;79.52
6032;BME280;3044;43.232;27.972;2023-03-03T00:17:24;45150.00;;;-143.84;79.97
6032;BME280;3044;43.232;27.972;2023-03-03T00:19:51;45142.38;;;-143.84;79.51
6032;BME280;3044;43.232;27.972;2023-03-03T00:22:27;45121.44;;;-143.84;80.03
6032;BME280;3044;43.232;27.972;2023-03-03T00:24:58;45140.47;;;-143.84;79.45
6032;BME280;3044;43.232;27.972;2023-03-03T00:27:30;45176.66;;;-143.84;79.45
6032;BME280;3044;43.232;27.972;2023-03-03T00:29:58;45142.38;;;-143.84;79.45
6032;BME280;3044;43.232;27.972;2023-03-03T00:32:29;45176.66;;;-143.84;79.35
6032;BME280;3044;43.232;27.972;2023-03-03T00:35:01;45157.59;;;-143.84;79.54
6032;BME280;3044;43.232;27.972;2023-03-03T00:37:43;45159.50;;;-143.84;78.77
6032;BME280;3044;43.232;27.972;2023-03-03T00:40:19;45186.16;;;-143.84;78.88
6032;BME280;3044;43.232;27.972;2023-03-03T00:42:51;45157.59;;;-143.84;78.91
6032;BME280;3044;43.232;27.972;2023-03-03T00:45:28;45151.91;;;-143.84;78.83
6032;BME280;3044;43.232;27.972;2023-03-03T00:47:56;45172.84;;;-143.84;78.57
6032;BME280;3044;43.232;27.972;2023-03-03T00:50:29;45150.00;;;-143.84;78.48
6032;BME280;3044;43.232;27.972;2023-03-03T00:53:02;45142.38;;;-143.84;78.60
6032;BME280;3044;43.232;27.972;2023-03-03T00:55:30;45170.94;;;-143.84;78.14
6032;BME280;3044;43.232;27.972;2023-03-03T00:58:03;45153.81;;;-143.84;78.28
6032;BME280;3044;43.232;27.972;2023-03-03T01:00:30;45178.56;;;-143.84;78.03
6032;BME280;3044;43.232;27.972;2023-03-03T01:02:59;45161.41;;;-143.84;78.01
6032;BME280;3044;43.232;27.972;2023-03-03T01:05:28;45188.06;;;-143.84;78.01
6032;BME280;3044;43.232;27.972;2023-03-03T01:07:55;45153.81;;;-143.84;77.29
6032;BME280;3044;43.232;27.972;2023-03-03T01:10:22;45174.75;;;-143.84;77.76
6032;BME280;3044;43.232;27.972;2023-03-03T01:12:50;45153.81;;;-143.84;77.49
6032;BME280;3044;43.232;27.972;2023-03-03T01:15:19;45167.13;;;-143.84;77.83
6032;BME280;3044;43.232;27.972;2023-03-03T01:17:46;45165.22;;;-143.84;78.13
6032;BME280;3044;43.232;27.972;2023-03-03T01:20:14;45170.94;;;-143.84;78.35
6032;BME280;3044;43.232;27.972;2023-03-03T01:22:41;45159.50;;;-143.84;78.05
6032;BME280;3044;43.232;27.972;2023-03-03T01:25:09;45157.59;;;-143.84;78.11
6032;BME280;3044;43.232;27.972;2023-03-03T01:27:36;45176.66;;;-143.84;78.57
6032;BME280;3044;43.232;27.972;2023-03-03T01:30:04;45167.13;;;-143.84;78.25
6032;BME280;3044;43.232;27.972;2023-03-03T01:32:34;45140.47;;;-143.84;78.42
6032;BME280;3044;43.232;27.972;2023-03-03T01:35:01;45174.75;;;-143.84;78.77
6032;BME280;3044;43.232;27.972;2023-03-03T01:37:28;45188.06;;;-143.84;78.71
6032;BME280;3044;43.232;27.972;2023-03-03T01:39:56;45186.16;;;-143.84;78.25
6032;BME280;3044;43.232;27.972;2023-03-03T01:42:23;45186.16;;;-143.84;78.48
6032;BME280;3044;43.232;27.972;2023-03-03T01:45:18;45155.69;;;-143.84;78.37
6032;BME280;3044;43.232;27.972;2023-03-03T01:47:58;45169.03;;;-143.84;78.28
6032;BME280;3044;43.232;27.972;2023-03-03T01:50:38;45189.97;;;-143.84;77.87
6032;BME280;3044;43.232;27.972;2023-03-03T01:53:12;45130.94;;;-143.84;78.48
6032;BME280;3044;43.232;27.972;2023-03-03T01:55:41;45167.13;;;-143.84;79.06
6032;BME280;3044;43.232;27.972;2023-03-03T01:58:12;45142.38;;;-143.84;79.19
6032;BME280;3044;43.232;27.972;2023-03-03T02:00:41;45148.09;;;-143.84;78.98
6032;BME280;3044;43.232;27.972;2023-03-03T02:03:12;45151.91;;;-143.84;79.08
6032;BME280;3044;43.232;27.972;2023-03-03T02:05:39;45174.75;;;-143.84;78.82
6032;BME280;3044;43.232;27.972;2023-03-03T02:08:09;45180.47;;;-143.84;78.86
6032;BME280;3044;43.232;27.972;2023-03-03T02:10:40;45157.59;;;-143.84;78.65
6032;BME280;3044;43.232;27.972;2023-03-03T02:13:09;45174.75;;;-143.84;78.48
6032;BME280;3044;43.232;27.972;2023-03-03T02:15:36;45163.31;;;-143.84;78.85
6032;BME280;3044;43.232;27.972;2023-03-03T02:18:06;45176.66;;;-143.84;78.37
6032;BME280;3044;43.232;27.972;2023-03-03T02:20:47;45182.38;;;-143.84;78.22
6032;BME280;3044;43.232;27.972;2023-03-03T02:23:22;45174.75;;;-143.84;78.62
6032;BME280;3044;43.232;27.972;2023-03-03T02:26:04;45186.16;;;-143.84;78.39
6032;BME280;3044;43.232;27.972;2023-03-03T02:28:33;45186.16;;;-143.84;78.00
6032;BME280;3044;43.232;27.972;2023-03-03T02:31:02;45142.38;;;-143.84;78.28
6032;BME280;3044;43.232;27.972;2023-03-03T02:33:31;45167.13;;;-143.84;78.19
6032;BME280;3044;43.232;27.972;2023-03-03T02:35:58;45174.75;;;-143.84;78.39
6032;BME280;3044;43.232;27.972;2023-03-03T02:38:29;45161.41;;;-143.84;78.37
6032;BME280;3044;43.232;27.972;2023-03-03T02:41:08;45151.91;;;-143.84;78.21
6032;BME280;3044;43.232;27.972;2023-03-03T02:43:43;45167.13;;;-143.84;78.15
6032;BME280;3044;43.232;27.972;2023-03-03T02:46:12;45132.84;;;-143.84;77.87
6032;BME280;3044;43.232;27.972;2023-03-03T02:48:39;45188.06;;;-143.84;78.29
6032;BME280;3044;43.232;27.972;2023-03-03T02:51:07;45186.16;;;-143.84;78.05
6032;BME280;3044;43.232;27.972;2023-03-03T02:53:34;45165.22;;;-143.84;77.94
6032;BME280;3044;43.232;27.972;2023-03-03T02:56:02;45174.75;;;-143.84;78.17
6032;BME280;3044;43.232;27.972;2023-03-03T02:58:30;45199.50;;;-143.84;77.27
6032;BME280;3044;43.232;27.972;2023-03-03T03:00:57;45172.84;;;-143.84;77.39
6032;BME280;3044;43.232;27.972;2023-03-03T03:03:24;45189.97;;;-143.84;77.53
6032;BME280;3044;43.232;27.972;2023-03-03T03:05:51;45199.50;;;-143.84;77.54
6032;BME280;3044;43.232;27.972;2023-03-03T03:08:18;45146.19;;;-143.84;76.79
6032;BME280;3044;43.232;27.972;2023-03-03T03:10:45;45180.47;;;-143.84;76.66
6032;BME280;3044;43.232;27.972;2023-03-03T03:13:14;45140.47;;;-143.84;77.02
6032;BME280;3044;43.232;27.972;2023-03-03T03:15:42;45174.75;;;-143.84;77.26
6032;BME280;3044;43.232;27.972;2023-03-03T03:18:10;45191.88;;;-143.84;76.90
6032;BME280;3044;43.232;27.972;2023-03-03T03:20:38;45155.69;;;-143.84;76.84
6032;BME280;3044;43.232;27.972;2023-03-03T03:23:06;45203.31;;;-143.84;77.36
6032;BME280;3044;43.232;27.972;2023-03-03T03:25:34;45233.78;;;-143.84;76.87
6032;BME280;3044;43.232;27.972;2023-03-03T03:28:07;45155.69;;;-143.84;76.80
6032;BME280;3044;43.232;27.972;2023-03-03T03:30:35;45178.56;;;-143.84;77.31
6032;BME280;3044;43.232;27.972;2023-03-03T03:33:03;45189.97;;;-143.84;77.35
6032;BME280;3044;43.232;27.972;2023-03-03T03:35:31;45165.22;;;-143.84;77.29
6032;BME280;3044;43.232;27.972;2023-03-03T03:37:58;45209.03;;;-143.84;77.29
6032;BME280;3044;43.232;27.972;2023-03-03T03:40:25;45210.94;;;-143.84;76.92
6032;BME280;3044;43.232;27.972;2023-03-03T03:42:53;45193.78;;;-143.84;76.99
6032;BME280;3044;43.232;27.972;2023-03-03T03:45:20;45157.59;;;-143.84;76.71
6032;BME280;3044;43.232;27.972;2023-03-03T03:47:49;45163.31;;;-143.84;77.31
6032;BME280;3044;43.232;27.972;2023-03-03T03:50:16;45201.41;;;-143.84;77.32
6032;BME280;3044;43.232;27.972;2023-03-03T03:52:43;45169.03;;;-143.84;77.13
6032;BME280;3044;43.232;27.972;2023-03-03T03:55:11;45167.13;;;-143.84;77.83
6032;BME280;3044;43.232;27.972;2023-03-03T03:57:39;45161.41;;;-143.84;77.65
6032;BME280;3044;43.232;27.972;2023-03-03T04:00:08;45189.97;;;-143.84;77.66
6032;BME280;3044;43.232;27.972;2023-03-03T04:02:36;45207.13;;;-143.84;77.89
6032;BME280;3044;43.232;27.972;2023-03-03T04:05:05;45176.66;;;-143.84;77.67
6032;BME280;3044;43.232;27.972;2023-03-03T04:07:33;45180.47;;;-143.84;77.79
6032;BME280;3044;43.232;27.972;2023-03-03T04:10:00;45193.78;;;-143.84;77.43
6032;BME280;3044;43.232;27.972;2023-03-03T04:12:27;45180.47;;;-143.84;77.94
6032;BME280;3044;43.232;27.972;2023-03-03T04:14:54;45176.66;;;-143.84;77.83
6032;BME280;3044;43.232;27.972;2023-03-03T04:17:23;45170.94;;;-143.84;78.14
6032;BME280;3044;43.232;27.972;2023-03-03T04:19:52;45153.81;;;-143.84;77.47
6032;BME280;3044;43.232;27.972;2023-03-03T04:22:20;45150.00;;;-143.84;78.00
6032;BME280;3044;43.232;27.972;2023-03-03T04:24:47;45170.94;;;-143.84;77.34
6032;BME280;3044;43.232;27.972;2023-03-03T04:27:15;45163.31;;;-143.84;77.52
6032;BME280;3044;43.232;27.972;2023-03-03T04:29:42;45159.50;;;-143.84;77.90
6032;BME280;3044;43.232;27.972;2023-03-03T04:32:09;45176.66;;;-143.84;78.20
6032;BME280;3044;43.232;27.972;2023-03-03T04:34:36;45155.69;;;-143.84;78.09
6032;BME280;3044;43.232;27.972;2023-03-03T04:37:03;45163.31;;;-143.84;77.69
6032;BME280;3044;43.232;27.972;2023-03-03T04:39:31;45186.16;;;-143.84;78.25
6032;BME280;3044;43.232;27.972;2023-03-03T04:41:59;45155.69;;;-143.84;77.72
6032;BME280;3044;43.232;27.972;2023-03-03T04:44:26;45151.91;;;-143.84;78.45
6032;BME280;3044;43.232;27.972;2023-03-03T04:46:53;45165.22;;;-143.84;78.35
6032;BME280;3044;43.232;27.972;2023-03-03T04:49:20;45195.69;;;-143.84;77.69
6032;BME280;3044;43.232;27.972;2023-03-03T04:51:47;45159.50;;;-143.84;78.40
6032;BME280;3044;43.232;27.972;2023-03-03T04:54:14;45165.22;;;-143.84;77.97
6032;BME280;3044;43.232;27.972;2023-03-03T04:56:43;45148.09;;;-143.84;78.23
6032;BME280;3044;43.232;27.972;2023-03-03T04:59:10;45186.16;;;-143.84;78.30
6032;BME280;3044;43.232;27.972;2023-03-03T05:01:37;45193.78;;;-143.84;78.02
6032;BME280;3044;43.232;27.972;2023-03-03T05:04:05;45144.28;;;-143.84;78.70
6032;BME280;3044;43.232;27.972;2023-03-03T05:06:32;45157.59;;;-143.84;78.65
6032;BME280;3044;43.232;27.972;2023-03-03T05:08:59;45157.59;;;-143.84;78.43
6032;BME280;3044;43.232;27.972;2023-03-03T05:11:27;45178.56;;;-143.84;78.82
6032;BME280;3044;43.232;27.972;2023-03-03T05:13:55;45151.91;;;-143.84;78.91
6032;BME280;3044;43.232;27.972;2023-03-03T05:16:22;45167.13;;;-143.84;79.16
6032;BME280;3044;43.232;27.972;2023-03-03T05:18:49;45151.91;;;-143.84;79.11
6032;BME280;3044;43.232;27.972;2023-03-03T05:21:16;45161.41;;;-143.84;78.85
6032;BME280;3044;43.232;27.972;2023-03-03T05:23:43;45199.50;;;-143.84;78.84
6032;BME280;3044;43.232;27.972;2023-03-03T05:26:11;45163.31;;;-143.84;78.91
6032;BME280;3044;43.232;27.972;2023-03-03T05:28:38;45172.84;;;-143.84;78.35
6032;BME280;3044;43.232;27.972;2023-03-03T05:31:06;45184.25;;;-143.84;77.71
6032;BME280;3044;43.232;27.972;2023-03-03T05:33:33;45180.47;;;-143.84;77.80
6032;BME280;3044;43.232;27.972;2023-03-03T05:36:00;45201.41;;;-143.84;77.62
6032;BME280;3044;43.232;27.972;2023-03-03T05:38:28;45186.16;;;-143.84;76.85
6032;BME280;3044;43.232;27.972;2023-03-03T05:40:55;45176.66;;;-143.84;77.42
6032;BME280;3044;43.232;27.972;2023-03-03T05:43:22;45205.22;;;-143.84;77.33
6032;BME280;3044;43.232;27.972;2023-03-03T05:45:54;45167.13;;;-143.84;77.13
6032;BME280;3044;43.232;27.972;2023-03-03T05:48:23;45180.47;;;-143.84;76.20
6032;BME280;3044;43.232;27.972;2023-03-03T05:50:51;45161.41;;;-143.84;76.26
6032;BME280;3044;43.232;27.972;2023-03-03T05:53:18;45188.06;;;-143.84;76.60
6032;BME280;3044;43.232;27.972;2023-03-03T05:55:45;45169.03;;;-143.84;76.46
6032;BME280;3044;43.232;27.972;2023-03-03T05:58:12;45144.28;;;-143.84;76.45
6032;BME280;3044;43.232;27.972;2023-03-03T06:00:39;45186.16;;;-143.84;76.60
6032;BME280;3044;43.232;27.972;2023-03-03T06:03:06;45170.94;;;-143.84;76.82
6032;BME280;3044;43.232;27.972;2023-03-03T06:05:35;45203.31;;;-143.84;76.29
6032;BME280;3044;43.232;27.972;2023-03-03T06:08:02;45153.81;;;-143.84;75.81
6032;BME280;3044;43.232;27.972;2023-03-03T06:10:29;45178.56;;;-143.84;75.69
6032;BME280;3044;43.232;27.972;2023-03-03T06:12:56;45153.81;;;-143.84;75.69
6032;BME280;3044;43.232;27.972;2023-03-03T06:15:24;45170.94;;;-143.84;75.18
6032;BME280;3044;43.232;27.972;2023-03-03T06:17:51;45199.50;;;-143.84;75.36
6032;BME280;3044;43.232;27.972;2023-03-03T06:20:19;45155.69;;;-143.84;75.26
6032;BME280;3044;43.232;27.972;2023-03-03T06:22:49;45176.66;;;-143.84;74.91
6032;BME280;3044;43.232;27.972;2023-03-03T06:25:16;45188.06;;;-143.84;74.98
6032;BME280;3044;43.232;27.972;2023-03-03T06:27:44;45203.31;;;-143.84;75.04
6032;BME280;3044;43.232;27.972;2023-03-03T06:30:11;45193.78;;;-143.84;75.01
6032;BME280;3044;43.232;27.972;2023-03-03T06:32:39;45163.31;;;-143.84;74.94
6032;BME280;3044;43.232;27.972;2023-03-03T06:35:06;45169.03;;;-143.84;74.43
6032;BME280;3044;43.232;27.972;2023-03-03T06:37:33;45178.56;;;-143.84;74.81
6032;BME280;3044;43.232;27.972;2023-03-03T06:40:02;45189.97;;;-143.84;74.61
6032;BME280;3044;43.232;27.972;2023-03-03T06:42:30;45210.94;;;-143.84;73.88
6032;BME280;3044;43.232;27.972;2023-03-03T06:44:57;45165.22;;;-143.84;73.56
6032;BME280;3044;43.232;27.972;2023-03-03T06:47:24;45174.75;;;-143.84;73.76
6032;BME280;3044;43.232;27.972;2023-03-03T06:49:51;45170.94;;;-143.84;73.35
6032;BME280;3044;43.232;27.972;2023-03-03T06:52:22;45186.16;;;-143.84;73.81
6032;BME280;3044;43.232;27.972;2023-03-03T06:54:50;45189.97;;;-143.84;73.75
6032;BME280;3044;43.232;27.972;2023-03-03T06:57:25;45155.69;;;-143.84;73.02
6032;BME280;3044;43.232;27.972;2023-03-03T06:59:55;45167.13;;;-143.84;73.06
6032;BME280;3044;43.232;27.972;2023-03-03T07:02:23;45178.56;;;-143.84;72.92
6032;BME280;3044;43.232;27.972;2023-03-03T07:04:52;45170.94;;;-143.84;72.15
6032;BME280;3044;43.232;27.972;2023-03-03T07:07:21;45188.06;;;-143.84;72.65
6032;BME280;3044;43.232;27.972;2023-03-03T07:09:51;45161.41;;;-143.84;71.57
6032;BME280;3044;43.232;27.972;2023-03-03T07:12:21;45174.75;;;-143.84;70.80
6032;BME280;3044;43.232;27.972;2023-03-03T07:14:51;45197.59;;;-143.84;71.32
6032;BME280;3044;43.232;27.972;2023-03-03T07:17:22;45178.56;;;-143.84;71.38
6032;BME280;3044;43.232;27.972;2023-03-03T07:19:50;45207.13;;;-143.84;70.76
6032;BME280;3044;43.232;27.972;2023-03-03T07:22:19;45176.66;;;-143.84;70.99
6032;BME280;3044;43.232;27.972;2023-03-03T07:24:48;45193.78;;;-143.84;71.22
6032;BME280;3044;43.232;27.972;2023-03-03T07:27:22;45174.75;;;-143.84;71.00
6032;BME280;3044;43.232;27.972;2023-03-03T07:29:50;45167.13;;;-143.84;70.65
6032;BME280;3044;43.232;27.972;2023-03-03T07:32:26;45172.84;;;-143.84;70.72
6032;BME280;3044;43.232;27.972;2023-03-03T07:34:55;45159.50;;;-143.84;70.70
6032;BME280;3044;43.232;27.972;2023-03-03T07:37:28;45207.13;;;-143.84;70.52
6032;BME280;3044;43.232;27.972;2023-03-03T07:39:57;45178.56;;;-143.84;69.56
6032;BME280;3044;43.232;27.972;2023-03-03T07:42:29;45180.47;;;-143.84;70.04
6032;BME280;3044;43.232;27.972;2023-03-03T07:45:21;45220.44;;;-143.84;70.37
6032;BME280;3044;43.232;27.972;2023-03-03T07:47:49;45189.97;;;-143.84;70.29
6032;BME280;3044;43.232;27.972;2023-03-03T07:50:19;45170.94;;;-143.84;70.80
6032;BME280;3044;43.232;27.972;2023-03-03T07:52:53;45193.78;;;-143.84;70.26
6032;BME280;3044;43.232;27.972;2023-03-03T07:55:33;45176.66;;;-143.84;70.29
6032;BME280;3044;43.232;27.972;2023-03-03T07:58:21;45157.59;;;-143.84;70.28
6032;BME280;3044;43.232;27.972;2023-03-03T08:03:49;45191.88;;;-143.84;70.05
6032;BME280;3044;43.232;27.972;2023-03-03T08:06:43;45195.69;;;-143.84;69.84
6032;BME280;3044;43.232;27.972;2023-03-03T08:12:23;45170.94;;;-143.84;69.81
6032;BME280;3044;43.232;27.972;2023-03-03T08:14:57;45159.50;;;-143.84;69.00
6032;BME280;3044;43.232;27.972;2023-03-03T08:17:35;45174.75;;;-143.84;68.66
6032;BME280;3044;43.232;27.972;2023-03-03T08:23:17;45176.66;;;-143.84;69.32
6032;BME280;3044;43.232;27.972;2023-03-03T08:25:46;45180.47;;;-143.84;69.00
6032;BME280;3044;43.232;27.972;2023-03-03T08:28:14;45163.31;;;-143.84;68.92
6032;BME280;3044;43.232;27.972;2023-03-03T08:30:45;45165.22;;;-143.84;69.19
6032;BME280;3044;43.232;27.972;2023-03-03T08:33:13;45163.31;;;-143.84;69.10
6032;BME280;3044;43.232;27.972;2023-03-03T08:35:41;45170.94;;;-143.84;68.07
6032;BME280;3044;43.232;27.972;2023-03-03T08:38:09;45163.31;;;-143.84;67.25
6032;BME280;3044;43.232;27.972;2023-03-03T08:40:37;45188.06;;;-143.84;66.38
6032;BME280;3044;43.232;27.972;2023-03-03T08:43:04;45155.69;;;-143.84;66.25
6032;BME280;3044;43.232;27.972;2023-03-03T08:45:32;45195.69;;;-143.84;66.16
6032;BME280;3044;43.232;27.972;2023-03-03T08:48:00;45178.56;;;-143.84;65.73
6032;BME280;3044;43.232;27.972;2023-03-03T08:50:28;45174.75;;;-143.84;66.37
6032;BME280;3044;43.232;27.972;2023-03-03T08:52:55;45191.88;;;-143.84;66.21
6032;BME280;3044;43.232;27.972;2023-03-03T08:55:23;45155.69;;;-143.84;65.85
6032;BME280;3044;43.232;27.972;2023-03-03T08:57:50;45167.13;;;-143.84;65.50
6032;BME280;3044;43.232;27.972;2023-03-03T09:00:18;45161.41;;;-143.84;63.51
6032;BME280;3044;43.232;27.972;2023-03-03T09:02:46;45180.47;;;-143.84;62.87
6032;BME280;3044;43.232;27.972;2023-03-03T09:05:15;45188.06;;;-143.84;62.48
6032;BME280;3044;43.232;27.972;2023-03-03T09:07:44;45153.81;;;-143.84;62.01
6032;BME280;3044;43.232;27.972;2023-03-03T09:10:13;45144.28;;;-143.84;61.83
6032;BME280;3044;43.232;27.972;2023-03-03T09:12:42;45148.09;;;-143.84;61.13
6032;BME280;3044;43.232;27.972;2023-03-03T09:15:18;45178.56;;;-143.84;59.50
6032;BME280;3044;43.232;27.972;2023-03-03T09:17:46;45148.09;;;-143.84;58.56
6032;BME280;3044;43.232;27.972;2023-03-03T09:20:26;45142.38;;;-143.84;58.87
6032;BME280;3044;43.232;27.972;2023-03-03T09:22:54;45157.59;;;-143.84;59.38
6032;BME280;3044;43.232;27.972;2023-03-03T09:25:27;45159.50;;;-143.84;58.40
6032;BME280;3044;43.232;27.972;2023-03-03T09:27:58;45169.03;;;-143.84;57.89
6032;BME280;3044;43.232;27.972;2023-03-03T09:30:35;45189.97;;;-143.84;57.46
6032;BME280;3044;43.232;27.972;2023-03-03T09:33:22;45155.69;;;-143.84;57.08
6032;BME280;3044;43.232;27.972;2023-03-03T09:35:53;45184.25;;;-143.84;58.16
6032;BME280;3044;43.232;27.972;2023-03-03T09:38:29;45151.91;;;-143.84;57.96
6032;BME280;3044;43.232;27.972;2023-03-03T09:44:35;45153.81;;;-143.84;59.73
6032;BME280;3044;43.232;27.972;2023-03-03T09:47:21;45148.09;;;-143.84;58.95
6032;BME280;3044;43.232;27.972;2023-03-03T09:50:00;45148.09;;;-143.84;58.68
6032;BME280;3044;43.232;27.972;2023-03-03T09:52:37;45144.28;;;-143.84;57.88
6032;BME280;3044;43.232;27.972;2023-03-03T09:55:23;45148.09;;;-143.84;59.21
6032;BME280;3044;43.232;27.972;2023-03-03T09:58:12;45151.91;;;-143.84;58.41
6032;BME280;3044;43.232;27.972;2023-03-03T10:00:53;45178.56;;;-143.84;58.68
6032;BME280;3044;43.232;27.972;2023-03-03T10:03:41;45176.66;;;-143.84;57.58
6032;BME280;3044;43.232;27.972;2023-03-03T10:06:18;45155.69;;;-143.84;58.14
6032;BME280;3044;43.232;27.972;2023-03-03T10:09:06;45188.06;;;-143.84;56.40
6032;BME280;3044;43.232;27.972;2023-03-03T10:11:42;45163.31;;;-143.84;56.28
6032;BME280;3044;43.232;27.972;2023-03-03T10:14:29;45151.91;;;-143.84;55.07
6032;BME280;3044;43.232;27.972;2023-03-03T10:17:18;45176.66;;;-143.84;54.06
6032;BME280;3044;43.232;27.972;2023-03-03T10:19:56;45146.19;;;-143.84;55.13
6032;BME280;3044;43.232;27.972;2023-03-03T10:22:35;45134.75;;;-143.84;56.60
6032;BME280;3044;43.232;27.972;2023-03-03T10:25:18;45159.50;;;-143.84;55.73
6032;BME280;3044;43.232;27.972;2023-03-03T10:27:56;45134.75;;;-143.84;55.14
6032;BME280;3044;43.232;27.972;2023-03-03T10:30:38;45153.81;;;-143.84;55.26
6032;BME280;3044;43.232;27.972;2023-03-03T10:33:11;45153.81;;;-143.84;54.64
6032;BME280;3044;43.232;27.972;2023-03-03T10:35:54;45165.22;;;-143.84;54.66
6032;BME280;3044;43.232;27.972;2023-03-03T10:38:38;45144.28;;;-143.84;54.41
6032;BME280;3044;43.232;27.972;2023-03-03T10:41:26;45148.09;;;-143.84;53.15
6032;BME280;3044;43.232;27.972;2023-03-03T10:44:07;45163.31;;;-143.84;53.58
6032;BME280;3044;43.232;27.972;2023-03-03T10:46:55;45170.94;;;-143.84;53.80
6032;BME280;3044;43.232;27.972;2023-03-03T10:49:40;45144.28;;;-143.84;55.91
6032;BME280;3044;43.232;27.972;2023-03-03T10:52:32;45178.56;;;-143.84;55.12
6032;BME280;3044;43.232;27.972;2023-03-03T10:55:20;45153.81;;;-143.84;55.52
6032;BME280;3044;43.232;27.972;2023-03-03T10:58:02;45163.31;;;-143.84;54.29
6032;BME280;3044;43.232;27.972;2023-03-03T11:00:38;45165.22;;;-143.84;55.63
6032;BME280;3044;43.232;27.972;2023-03-03T11:06:24;45148.09;;;-143.84;57.77
6032;BME280;3044;43.232;27.972;2023-03-03T11:08:55;45142.38;;;-143.84;57.20
6032;BME280;3044;43.232;27.972;2023-03-03T11:11:32;45140.47;;;-143.84;58.28
6032;BME280;3044;43.232;27.972;2023-03-03T11:14:11;45188.06;;;-143.84;58.82
6032;BME280;3044;43.232;27.972;2023-03-03T11:16:46;45138.56;;;-143.84;59.65
6032;BME280;3044;43.232;27.972;2023-03-03T11:19:46;45180.47;;;-143.84;60.52
6032;BME280;3044;43.232;27.972;2023-03-03T11:22:33;45157.59;;;-143.84;59.19
6032;BME280;3044;43.232;27.972;2023-03-03T11:25:23;45159.50;;;-143.84;57.55
6032;BME280;3044;43.232;27.972;2023-03-03T11:28:05;45159.50;;;-143.84;56.31
6032;BME280;3044;43.232;27.972;2023-03-03T11:30:43;45159.50;;;-143.84;56.28
6032;BME280;3044;43.232;27.972;2023-03-03T11:33:18;45142.38;;;-143.84;54.57
6032;BME280;3044;43.232;27.972;2023-03-03T11:35:50;45144.28;;;-143.84;54.17
6032;BME280;3044;43.232;27.972;2023-03-03T11:38:41;45140.47;;;-143.84;56.25
6032;BME280;3044;43.232;27.972;2023-03-03T11:41:17;45159.50;;;-143.84;54.46
6032;BME280;3044;43.232;27.972;2023-03-03T11:43:48;45165.22;;;-143.84;55.00
6032;BME280;3044;43.232;27.972;2023-03-03T11:46:23;45146.19;;;-143.84;55.49
6032;BME280;3044;43.232;27.972;2023-03-03T11:48:56;45151.91;;;-143.84;55.89
6032;BME280;3044;43.232;27.972;2023-03-03T11:51:33;45151.91;;;-143.84;56.29
6032;BME280;3044;43.232;27.972;2023-03-03T11:54:08;45140.47;;;-143.84;55.17
6032;BME280;3044;43.232;27.972;2023-03-03T11:56:40;45161.41;;;-143.84;55.00
6032;BME280;3044;43.232;27.972;2023-03-03T11:59:34;45153.81;;;-143.84;55.67
6032;BME280;3044;43.232;27.972;2023-03-03T12:02:20;45155.69;;;-143.84;53.76
6032;BME280;3044;43.232;27.972;2023-03-03T12:04:51;45184.25;;;-143.84;52.94
6032;BME280;3044;43.232;27.972;2023-03-03T12:07:27;45169.03;;;-143.84;52.34
6032;BME280;3044;43.232;27.972;2023-03-03T12:10:04;45153.81;;;-143.84;52.33
6032;BME280;3044;43.232;27.972;2023-03-03T12:12:35;45134.75;;;-143.84;54.32
6032;BME280;3044;43.232;27.972;2023-03-03T12:15:13;45180.47;;;-143.84;54.89
6032;BME280;3044;43.232;27.972;2023-03-03T12:17:57;45172.84;;;-143.84;56.40
6032;BME280;3044;43.232;27.972;2023-03-03T12:20:32;45170.94;;;-143.84;56.15
6032;BME280;3044;43.232;27.972;2023-03-03T12:23:16;45144.28;;;-143.84;55.96
6032;BME280;3044;43.232;27.972;2023-03-03T12:25:53;45167.13;;;-143.84;57.51
6032;BME280;3044;43.232;27.972;2023-03-03T12:28:27;45159.50;;;-143.84;57.48
6032;BME280;3044;43.232;27.972;2023-03-03T12:31:08;45142.38;;;-143.84;56.59
6032;BME280;3044;43.232;27.972;2023-03-03T12:33:50;45150.00;;;-143.84;56.45
6032;BME280;3044;43.232;27.972;2023-03-03T12:36:29;45161.41;;;-143.84;57.27
6032;BME280;3044;43.232;27.972;2023-03-03T12:39:05;45178.56;;;-143.84;58.86
6032;BME280;3044;43.232;27.972;2023-03-03T12:41:40;45163.31;;;-143.84;58.55
6032;BME280;3044;43.232;27.972;2023-03-03T12:44:16;45159.50;;;-143.84;59.30
6032;BME280;3044;43.232;27.972;2023-03-03T12:46:45;45155.69;;;-143.84;60.15
6032;BME280;3044;43.232;27.972;2023-03-03T12:49:21;45155.69;;;-143.84;60.51
6032;BME280;3044;43.232;27.972;2023-03-03T12:52:04;45184.25;;;-143.84;61.06
6032;BME280;3044;43.232;27.972;2023-03-03T12:54:45;45170.94;;;-143.84;61.69
6032;BME280;3044;43.232;27.972;2023-03-03T12:57:22;45142.38;;;-143.84;61.14
6032;BME280;3044;43.232;27.972;2023-03-03T13:00:02;45167.13;;;-143.84;61.31
6032;BME280;3044;43.232;27.972;2023-03-03T13:02:44;45159.50;;;-143.84;61.46
6032;BME280;3044;43.232;27.972;2023-03-03T13:05:23;45132.84;;;-143.84;60.27
6032;BME280;3044;43.232;27.972;2023-03-03T13:08:00;45169.03;;;-143.84;59.50
6032;BME280;3044;43.232;27.972;2023-03-03T13:10:36;45153.81;;;-143.84;60.31
6032;BME280;3044;43.232;27.972;2023-03-03T13:13:09;45163.31;;;-143.84;60.13
6032;BME280;3044;43.232;27.972;2023-03-03T13:15:42;45148.09;;;-143.84;60.45
6032;BME280;3044;43.232;27.972;2023-03-03T13:18:24;45186.16;;;-143.84;60.05
6032;BME280;3044;43.232;27.972;2023-03-03T13:21:01;45193.78;;;-143.84;60.61
6032;BME280;3044;43.232;27.972;2023-03-03T13:23:38;45161.41;;;-143.84;61.00
6032;BME280;3044;43.232;27.972;2023-03-03T13:26:12;45151.91;;;-143.84;61.71
6032;BME280;3044;43.232;27.972;2023-03-03T13:28:55;45193.78;;;-143.84;61.44
6032;BME280;3044;43.232;27.972;2023-03-03T13:31:30;45155.69;;;-143.84;61.30